Blue Star — LK8657 — position and weather

sailwx.info

Track history (hours):
 
Tides and Currents Weather Stations Pressure Air Temp Water Temp Dewpoint Dewpoint Depression Visibility Wind Speed Wind Dir Waves Ship Positions

Blue Star

Last reported at 2017-Jun-26 20:58 UTC. Time now 2017-Jun-26 20:58 UTC.
Position N 68°14' E 014°34'.

Length 11 m.

Type: Pleasure craft. MMSI: 258105360.

Date/timePositionNaut miles runAvg speedWind from/ knotsBaromVisibWave heightAir tempDewpointWater temp
2017-Jun-26 20:58N 68°14' E 014°34'0 0.0
2017-Jun-26 20:25N 68°14' E 014°34'0 0.0
2017-Jun-26 19:58N 68°14' E 014°34'0 0.0
2017-Jun-26 19:28N 68°14' E 014°34'0 0.0
2017-Jun-26 18:55N 68°14' E 014°34'0 0.0
2017-Jun-26 18:28N 68°14' E 014°34'0 0.0
2017-Jun-26 17:58N 68°14' E 014°34'0 0.0
2017-Jun-26 17:28N 68°14' E 014°34'0 0.0
2017-Jun-26 17:00N 68°14' E 014°34'0 0.0
2017-Jun-26 16:30N 68°14' E 014°34'0 0.0
2017-Jun-26 16:00N 68°14' E 014°34'0 0.0
2017-Jun-26 15:30N 68°14' E 014°34'0 0.0
2017-Jun-26 15:00N 68°14' E 014°34'0 0.0
2017-Jun-26 14:27N 68°14' E 014°34'0 0.0
2017-Jun-26 13:30N 68°14' E 014°34'0 0.0
2017-Jun-26 12:51N 68°14' E 014°34'0 0.0
2017-Jun-26 12:30N 68°14' E 014°34'0 0.0
2017-Jun-26 08:24N 68°14' E 014°34'0 0.0
2017-Jun-26 08:00N 68°14' E 014°34'0 0.0
2017-Jun-26 07:27N 68°14' E 014°34'0 0.0
2017-Jun-26 07:00N 68°14' E 014°34'0 0.0
2017-Jun-26 06:30N 68°14' E 014°34'0 0.0
2017-Jun-26 05:57N 68°14' E 014°34'0 0.0
2017-Jun-26 05:30N 68°14' E 014°34'0 0.0
2017-Jun-26 05:00N 68°14' E 014°34'0 0.0
2017-Jun-26 04:30N 68°14' E 014°34'0 0.0
2017-Jun-26 04:00N 68°14' E 014°34'0 0.0
2017-Jun-26 03:30N 68°14' E 014°34'0 0.0
2017-Jun-26 03:00N 68°14' E 014°34'0 0.0
2017-Jun-26 02:30N 68°14' E 014°34'0 0.0
2017-Jun-26 02:00N 68°14' E 014°34'0 0.0
2017-Jun-26 01:30N 68°14' E 014°34'0 0.0
2017-Jun-26 01:00N 68°14' E 014°34'0 0.0
2017-Jun-26 00:30N 68°14' E 014°34'0 0.0
2017-Jun-26 00:00N 68°14' E 014°34'0 0.0
2017-Jun-25 23:30N 68°14' E 014°34'0 0.0
2017-Jun-25 23:00N 68°14' E 014°34'0 0.0
2017-Jun-25 22:30N 68°14' E 014°34'0 0.0
2017-Jun-25 22:00N 68°14' E 014°34'0 0.0
2017-Jun-25 21:30N 68°14' E 014°34'0 0.0
2017-Jun-25 21:00N 68°14' E 014°34'0 0.0
2017-Jun-25 20:30N 68°14' E 014°34'0 0.0
2017-Jun-25 20:00N 68°14' E 014°34'0 0.0
2017-Jun-25 19:30N 68°14' E 014°34'0 0.0
2017-Jun-25 19:00N 68°14' E 014°34'0 0.0
2017-Jun-25 18:30N 68°14' E 014°34'0 0.0
2017-Jun-25 18:00N 68°14' E 014°34'0 0.0
2017-Jun-25 17:30N 68°14' E 014°34'0 0.0
2017-Jun-25 17:00N 68°14' E 014°34'0 0.0
2017-Jun-25 16:31N 68°14' E 014°34'0 0.0
2017-Jun-25 16:00N 68°14' E 014°34'0 0.0
2017-Jun-25 15:30N 68°14' E 014°34'0 0.0
2017-Jun-25 15:00N 68°14' E 014°34'0 0.0
2017-Jun-25 14:27N 68°14' E 014°34'0 0.0
2017-Jun-25 13:30N 68°14' E 014°34'3 6.7
2017-Jun-25 13:01N 68°14' E 014°43'4 7.9
2017-Jun-25 12:30N 68°14' E 014°54'4 8.0
2017-Jun-25 12:00N 68°16' E 015°03'4 7.8
2017-Jun-25 11:30N 68°17' E 015°13'4 7.7
2017-Jun-25 11:00N 68°18' E 015°23'4 7.7
2017-Jun-25 10:29N 68°18' E 015°34'4 7.5
2017-Jun-25 10:00N 68°19' E 015°43'4 8.2
2017-Jun-25 09:30N 68°22' E 015°52'4 8.0
2017-Jun-25 09:00N 68°24' E 016°00'0 0.7
2017-Jun-25 08:30N 68°25' E 016°00'0 0.0
2017-Jun-25 07:54N 68°25' E 016°00'0 0.0
2017-Jun-25 07:21N 68°25' E 016°00'0 0.0
2017-Jun-25 06:57N 68°25' E 016°00'0 0.0
2017-Jun-25 06:30N 68°25' E 016°00'0 0.0
2017-Jun-25 05:57N 68°25' E 016°00'0 0.0
2017-Jun-25 05:30N 68°25' E 016°00'0 0.0
2017-Jun-25 04:57N 68°25' E 016°00'0 0.0
2017-Jun-25 04:30N 68°25' E 016°00'0 0.0
2017-Jun-25 04:00N 68°25' E 016°00'0 0.0
2017-Jun-25 03:30N 68°25' E 016°00'0 0.0
2017-Jun-25 02:48N 68°25' E 016°00'0 0.0
2017-Jun-25 02:24N 68°25' E 016°00'0 0.0
2017-Jun-25 01:51N 68°25' E 016°00'0 0.0
2017-Jun-25 01:15N 68°25' E 016°00'0 0.0
2017-Jun-25 00:57N 68°25' E 016°00'0 0.0
2017-Jun-24 23:06N 68°25' E 016°00'0 0.0
2017-Jun-24 22:54N 68°25' E 016°00'0 0.0
2017-Jun-24 22:06N 68°25' E 016°00'0 0.0
2017-Jun-24 22:00N 68°25' E 016°00'0 0.0
2017-Jun-24 21:30N 68°25' E 016°00'0 0.0
2017-Jun-24 21:00N 68°25' E 016°00'0 0.0
2017-Jun-24 20:27N 68°25' E 016°00'0 0.0
2017-Jun-24 19:57N 68°25' E 016°00'0 0.0
2017-Jun-24 19:27N 68°25' E 016°00'0 0.0
2017-Jun-24 19:00N 68°25' E 016°00'0 0.0
2017-Jun-24 18:29N 68°25' E 016°00'0 0.0
2017-Jun-24 17:59N 68°25' E 016°00'0 0.0
2017-Jun-24 17:29N 68°25' E 016°00'0 0.0
2017-Jun-24 16:59N 68°25' E 016°00'2 3.5
2017-Jun-24 16:28N 68°26' E 016°03'4 7.4
2017-Jun-24 15:59N 68°29' E 016°07'4 7.5
2017-Jun-24 15:30N 68°32' E 016°13'4 7.7
2017-Jun-24 15:00N 68°34' E 016°23'6 6.2
2017-Jun-24 14:00N 68°38' E 016°35'4 7.1
2017-Jun-24 13:30N 68°41' E 016°38'4 7.7
2017-Jun-24 13:00N 68°45' E 016°37'3 6.4
2017-Jun-24 12:30N 68°48' E 016°33'0 0.3
2017-Jun-24 12:00N 68°48' E 016°33'0 0.0
2017-Jun-24 11:30N 68°48' E 016°33'0 0.0
2017-Jun-24 11:00N 68°48' E 016°33'0 0.0
2017-Jun-24 10:30N 68°48' E 016°33'0 0.0
2017-Jun-24 10:00N 68°48' E 016°33'0 0.0
2017-Jun-24 09:27N 68°48' E 016°33'0 0.0
2017-Jun-24 08:57N 68°48' E 016°33'0 0.0
2017-Jun-24 08:30N 68°48' E 016°33'0 0.0
2017-Jun-24 08:00N 68°48' E 016°33'0 0.0
2017-Jun-24 07:30N 68°48' E 016°33'0 0.0
2017-Jun-24 07:00N 68°48' E 016°33'0 0.0
2017-Jun-24 06:27N 68°48' E 016°33'0 0.0
2017-Jun-24 06:00N 68°48' E 016°33'0 0.0
2017-Jun-24 05:30N 68°48' E 016°33'0 0.0
2017-Jun-24 05:00N 68°48' E 016°33'0 0.0
2017-Jun-24 04:30N 68°48' E 016°33'0 0.0
2017-Jun-24 03:57N 68°48' E 016°33'0 0.0
2017-Jun-24 03:30N 68°48' E 016°33'0 0.0
2017-Jun-24 03:00N 68°48' E 016°33'0 0.0
2017-Jun-24 02:27N 68°48' E 016°33'0 0.0
2017-Jun-24 01:57N 68°48' E 016°33'0 0.0
2017-Jun-24 01:30N 68°48' E 016°33'0 0.0
2017-Jun-24 01:00N 68°48' E 016°33'0 0.0
2017-Jun-24 00:30N 68°48' E 016°33'0 0.0
2017-Jun-24 00:00N 68°48' E 016°33'0 0.0
2017-Jun-23 23:30N 68°48' E 016°33'0 0.0
2017-Jun-23 23:00N 68°48' E 016°33'0 0.0
2017-Jun-23 22:30N 68°48' E 016°33'0 0.0
2017-Jun-23 22:00N 68°48' E 016°33'0 0.0
2017-Jun-23 21:30N 68°48' E 016°33'0 0.0
2017-Jun-23 21:00N 68°48' E 016°33'0 0.0
2017-Jun-23 20:30N 68°48' E 016°33'0 0.0
2017-Jun-23 20:00N 68°48' E 016°33'0 0.0
2017-Jun-23 19:27N 68°48' E 016°33'0 0.0
2017-Jun-23 19:00N 68°48' E 016°33'0 0.0
2017-Jun-23 18:30N 68°48' E 016°33'0 0.0
2017-Jun-23 18:00N 68°48' E 016°33'0 0.0
2017-Jun-23 17:28N 68°48' E 016°33'0 0.0
2017-Jun-23 16:58N 68°48' E 016°33'0 0.0
2017-Jun-23 16:28N 68°48' E 016°33'0 0.0
2017-Jun-23 15:58N 68°48' E 016°33'0 0.0
2017-Jun-23 15:28N 68°48' E 016°33'0 0.0
2017-Jun-23 14:58N 68°48' E 016°33'0 0.0
2017-Jun-23 13:58N 68°48' E 016°33'0 0.0
2017-Jun-23 13:25N 68°48' E 016°33'0 0.0
2017-Jun-23 12:55N 68°48' E 016°33'0 0.0
2017-Jun-23 12:28N 68°48' E 016°33'0 0.0
2017-Jun-23 11:58N 68°48' E 016°33'0 0.0
2017-Jun-23 11:28N 68°48' E 016°33'0 0.0
2017-Jun-23 10:58N 68°48' E 016°33'0 0.0
2017-Jun-23 10:28N 68°48' E 016°33'0 0.0
2017-Jun-23 09:58N 68°48' E 016°33'0 0.0
2017-Jun-23 09:28N 68°48' E 016°33'0 0.0
2017-Jun-23 08:58N 68°48' E 016°33'0 0.0
2017-Jun-23 08:28N 68°48' E 016°33'0 0.0
2017-Jun-23 07:58N 68°48' E 016°33'0 0.0
2017-Jun-23 07:28N 68°48' E 016°33'0 0.0
2017-Jun-23 07:00N 68°48' E 016°33'0 0.0
2017-Jun-23 06:30N 68°48' E 016°33'0 0.0
2017-Jun-23 06:00N 68°48' E 016°33'0 0.0
2017-Jun-23 05:30N 68°48' E 016°33'0 0.0
2017-Jun-23 05:00N 68°48' E 016°33'0 0.0
2017-Jun-23 04:30N 68°48' E 016°33'0 0.0
2017-Jun-23 04:00N 68°48' E 016°33'0 0.0
2017-Jun-23 03:30N 68°48' E 016°33'0 0.0
2017-Jun-23 03:00N 68°48' E 016°33'0 0.0
2017-Jun-23 02:30N 68°48' E 016°33'0 0.0
2017-Jun-23 02:00N 68°48' E 016°33'0 0.0
2017-Jun-23 01:30N 68°48' E 016°33'0 0.0
2017-Jun-23 01:00N 68°48' E 016°33'0 0.0
2017-Jun-23 00:30N 68°48' E 016°33'0 0.0
2017-Jun-23 00:00N 68°48' E 016°33'0 0.0
2017-Jun-22 23:30N 68°48' E 016°33'0 0.0
2017-Jun-22 23:00N 68°48' E 016°33'0 0.0
2017-Jun-22 22:30N 68°48' E 016°33'0 0.0
2017-Jun-22 21:59N 68°48' E 016°33'0 0.0
2017-Jun-22 21:29N 68°48' E 016°33'2 3.1
2017-Jun-22 21:00N 68°49' E 016°36'4 8.1
2017-Jun-22 20:30N 68°51' E 016°46'4 8.4
2017-Jun-22 20:00N 68°54' E 016°55'4 8.0
2017-Jun-22 19:29N 68°56' E 017°05'4 8.3
2017-Jun-22 18:59N 68°58' E 017°16'4 8.3
2017-Jun-22 18:30N 68°60' E 017°25'4 8.5
2017-Jun-22 18:00N 69°03' E 017°32'4 8.2
2017-Jun-22 17:30N 69°07' E 017°38'4 8.6
2017-Jun-22 17:00N 69°09' E 017°48'4 8.4
2017-Jun-22 16:30N 69°11' E 017°59'4 7.3
2017-Jun-22 16:00N 69°14' E 017°58'0 0.6
2017-Jun-22 15:30N 69°14' E 017°59'0 0.0
2017-Jun-22 15:00N 69°14' E 017°59'0 0.0
2017-Jun-22 14:00N 69°14' E 017°59'0 0.0
2017-Jun-22 13:30N 69°14' E 017°59'0 0.0
2017-Jun-22 13:00N 69°14' E 017°59'0 0.0
2017-Jun-22 12:30N 69°14' E 017°59'0 0.0
2017-Jun-22 12:00N 69°14' E 017°59'0 0.0
2017-Jun-22 11:30N 69°14' E 017°59'0 0.0
2017-Jun-22 11:00N 69°14' E 017°59'0 0.0
2017-Jun-22 10:30N 69°14' E 017°59'0 0.0
2017-Jun-22 10:00N 69°14' E 017°59'0 0.0
2017-Jun-22 09:30N 69°14' E 017°59'0 0.0
2017-Jun-22 09:00N 69°14' E 017°59'0 0.0
2017-Jun-22 08:30N 69°14' E 017°59'0 0.0
2017-Jun-22 08:00N 69°14' E 017°59'0 0.0
2017-Jun-22 07:30N 69°14' E 017°59'0 0.0
2017-Jun-22 07:00N 69°14' E 017°59'0 0.0
2017-Jun-22 06:30N 69°14' E 017°59'0 0.0
2017-Jun-22 06:00N 69°14' E 017°59'0 0.0
2017-Jun-22 05:30N 69°14' E 017°59'0 0.0
2017-Jun-22 05:00N 69°14' E 017°59'0 0.0
2017-Jun-22 04:30N 69°14' E 017°59'0 0.0
2017-Jun-22 04:00N 69°14' E 017°59'0 0.0
2017-Jun-22 03:30N 69°14' E 017°59'0 0.0
2017-Jun-22 03:00N 69°14' E 017°59'0 0.0
2017-Jun-22 02:30N 69°14' E 017°59'0 0.0
2017-Jun-22 01:57N 69°14' E 017°59'0 0.0
2017-Jun-22 01:30N 69°14' E 017°59'0 0.0
2017-Jun-22 01:00N 69°14' E 017°59'0 0.0
2017-Jun-22 00:30N 69°14' E 017°59'0 0.0
2017-Jun-22 00:00N 69°14' E 017°59'0 0.0
2017-Jun-21 23:30N 69°14' E 017°59'0 0.0
2017-Jun-21 23:00N 69°14' E 017°59'0 0.0
2017-Jun-21 22:30N 69°14' E 017°59'0 0.0
2017-Jun-21 22:00N 69°14' E 017°59'0 0.0
2017-Jun-21 21:30N 69°14' E 017°59'0 0.0
2017-Jun-21 21:00N 69°14' E 017°59'3 5.4
2017-Jun-21 20:30N 69°17' E 017°58'4 8.2
2017-Jun-21 19:59N 69°21' E 018°04'4 8.5
2017-Jun-21 19:30N 69°25' E 018°06'4 8.1
2017-Jun-21 19:00N 69°29' E 018°10'4 7.9
2017-Jun-21 18:29N 69°30' E 018°20'4 7.9
2017-Jun-21 18:00N 69°32' E 018°31'4 8.1
2017-Jun-21 17:30N 69°33' E 018°41'3 6.4
2017-Jun-21 16:59N 69°35' E 018°49'4 8.3
2017-Jun-21 16:29N 69°38' E 018°57'1 2.9
2017-Jun-21 15:59N 69°39' E 018°60'0 0.0
2017-Jun-21 15:29N 69°39' E 018°60'0 0.0
2017-Jun-21 14:57N 69°39' E 018°60'0 0.0
2017-Jun-21 14:30N 69°39' E 018°60'0 0.0
2017-Jun-21 11:39N 69°39' E 018°60'0 0.0
2017-Jun-21 10:59N 69°39' E 018°60'0 0.0
2017-Jun-20 20:44N 69°39' E 018°60'0 0.0
2017-Jun-20 08:44N 69°39' E 018°60'0 0.0
2017-Jun-19 12:51N 69°39' E 018°60'0 0.0
2017-Jun-19 12:30N 69°39' E 018°60'0 0.0
2017-Jun-19 12:00N 69°39' E 018°60'0 0.0
2017-Jun-19 11:30N 69°39' E 018°60'0 0.0
2017-Jun-19 11:00N 69°39' E 018°60'0 0.0
2017-Jun-19 10:30N 69°39' E 018°60'0 0.0
2017-Jun-19 10:00N 69°39' E 018°60'0 0.0
2017-Jun-19 09:30N 69°39' E 018°60'0 0.0
2017-Jun-19 09:00N 69°39' E 018°60'0 0.0
2017-Jun-19 08:30N 69°39' E 018°60'0 0.0
2017-Jun-19 08:00N 69°39' E 018°60'0 0.0
2017-Jun-19 07:30N 69°39' E 018°60'0 0.0
2017-Jun-19 07:00N 69°39' E 018°60'0 0.0
2017-Jun-19 06:30N 69°39' E 018°60'0 0.0
2017-Jun-19 06:00N 69°39' E 018°60'0 0.0
2017-Jun-19 05:30N 69°39' E 018°60'0 0.0
2017-Jun-19 05:00N 69°39' E 018°60'0 0.0
2017-Jun-19 04:30N 69°39' E 018°60'0 0.0
2017-Jun-19 04:00N 69°39' E 018°60'0 0.0
2017-Jun-19 03:30N 69°39' E 018°60'0 0.0
2017-Jun-19 03:00N 69°39' E 018°60'0 0.0
2017-Jun-19 02:30N 69°39' E 018°60'0 0.0
2017-Jun-19 02:00N 69°39' E 018°60'0 0.0
2017-Jun-19 01:30N 69°39' E 018°60'0 0.0
2017-Jun-19 01:00N 69°39' E 018°60'0 0.0
2017-Jun-19 00:30N 69°39' E 018°60'0 0.0
2017-Jun-19 00:00N 69°39' E 018°60'0 0.0
2017-Jun-18 23:30N 69°39' E 018°60'0 0.0
2017-Jun-18 23:00N 69°39' E 018°60'0 0.0
2017-Jun-18 22:30N 69°39' E 018°60'0 0.0
2017-Jun-18 22:00N 69°39' E 018°60'0 0.0
2017-Jun-18 21:30N 69°39' E 018°60'0 0.0
2017-Jun-18 21:00N 69°39' E 018°60'0 0.0
2017-Jun-18 20:30N 69°39' E 018°60'0 0.0
2017-Jun-18 20:00N 69°39' E 018°60'0 0.0
2017-Jun-18 19:30N 69°39' E 018°60'0 0.0
2017-Jun-18 19:00N 69°39' E 018°60'0 0.0
2017-Jun-18 18:30N 69°39' E 018°60'0 0.0
2017-Jun-18 18:00N 69°39' E 018°60'0 0.0
2017-Jun-18 17:30N 69°39' E 018°60'0 0.0
2017-Jun-18 17:00N 69°39' E 018°60'0 0.0
2017-Jun-18 16:30N 69°39' E 018°60'0 0.0
2017-Jun-18 16:00N 69°39' E 018°60'0 0.0
2017-Jun-18 15:30N 69°39' E 018°60'0 0.0
2017-Jun-18 15:00N 69°39' E 018°60'0 0.0
2017-Jun-18 14:00N 69°39' E 018°60'0 0.0
2017-Jun-18 13:30N 69°39' E 018°60'0 0.0
2017-Jun-18 13:00N 69°39' E 018°60'0 0.0
2017-Jun-18 12:30N 69°39' E 018°60'0 0.0
2017-Jun-18 12:00N 69°39' E 018°60'0 0.0
2017-Jun-18 11:30N 69°39' E 018°60'0 0.0
2017-Jun-18 11:00N 69°39' E 018°60'0 0.0
2017-Jun-18 10:30N 69°39' E 018°60'0 0.0
2017-Jun-18 10:00N 69°39' E 018°60'0 0.0
2017-Jun-18 09:30N 69°39' E 018°60'0 0.0
2017-Jun-18 09:00N 69°39' E 018°60'0 0.0
2017-Jun-18 08:30N 69°39' E 018°60'0 0.0
2017-Jun-18 08:00N 69°39' E 018°60'0 0.0
2017-Jun-18 07:30N 69°39' E 018°60'0 0.0
2017-Jun-18 07:00N 69°39' E 018°60'0 0.0
2017-Jun-18 06:30N 69°39' E 018°60'0 0.0
2017-Jun-18 06:00N 69°39' E 018°60'0 0.0
2017-Jun-18 05:30N 69°39' E 018°60'0 0.0
2017-Jun-18 05:00N 69°39' E 018°60'0 0.0
2017-Jun-18 04:30N 69°39' E 018°60'0 0.0
2017-Jun-18 04:00N 69°39' E 018°60'0 0.0
2017-Jun-18 03:30N 69°39' E 018°60'0 0.0
2017-Jun-18 03:00N 69°39' E 018°60'0 0.0
2017-Jun-18 02:30N 69°39' E 018°60'0 0.0
2017-Jun-18 02:00N 69°39' E 018°60'0 0.0
2017-Jun-18 01:30N 69°39' E 018°60'0 0.0
2017-Jun-18 01:00N 69°39' E 018°60'0 0.0
2017-Jun-18 00:30N 69°39' E 018°60'0 0.0
2017-Jun-18 00:00N 69°39' E 018°60'0 0.0
2017-Jun-17 23:30N 69°39' E 018°60'0 0.0
2017-Jun-17 23:00N 69°39' E 018°60'0 0.0
2017-Jun-17 22:30N 69°39' E 018°60'0 0.0
2017-Jun-17 22:00N 69°39' E 018°60'0 0.0
2017-Jun-17 21:27N 69°39' E 018°60'0 0.0
2017-Jun-17 21:00N 69°39' E 018°60'0 0.0
2017-Jun-17 20:30N 69°39' E 018°60'0 0.0
2017-Jun-17 20:00N 69°39' E 018°60'0 0.0
2017-Jun-17 19:30N 69°39' E 018°60'0 0.0
2017-Jun-17 19:00N 69°39' E 018°60'0 0.0
2017-Jun-17 18:30N 69°39' E 018°60'0 0.0
2017-Jun-17 18:00N 69°39' E 018°60'0 0.0
2017-Jun-17 17:30N 69°39' E 018°60'0 0.0
2017-Jun-17 17:00N 69°39' E 018°60'0 0.0
2017-Jun-17 16:30N 69°39' E 018°60'0 0.0
2017-Jun-17 16:00N 69°39' E 018°60'0 0.0
2017-Jun-17 15:30N 69°39' E 018°60'0 0.0
2017-Jun-17 15:00N 69°39' E 018°60'0 0.0
2017-Jun-17 14:30N 69°39' E 018°60'0 0.0
2017-Jun-17 13:30N 69°39' E 018°60'0 0.0
2017-Jun-17 13:00N 69°39' E 018°60'0 0.0
2017-Jun-17 12:30N 69°39' E 018°60'0 0.0
2017-Jun-17 12:00N 69°39' E 018°60'0 0.0
2017-Jun-17 11:30N 69°39' E 018°60'0 0.0
2017-Jun-17 11:00N 69°39' E 018°60'0 0.0
2017-Jun-17 10:30N 69°39' E 018°60'0 0.0
2017-Jun-17 10:00N 69°39' E 018°60'0 0.0
2017-Jun-17 09:30N 69°39' E 018°60'0 0.0
2017-Jun-17 09:00N 69°39' E 018°60'0 0.0
2017-Jun-17 08:30N 69°39' E 018°60'0 0.0
2017-Jun-17 08:00N 69°39' E 018°60'0 0.0
2017-Jun-17 07:30N 69°39' E 018°60'0 0.0
2017-Jun-17 07:00N 69°39' E 018°60'0 0.0
2017-Jun-17 06:30N 69°39' E 018°60'0 0.0
2017-Jun-17 06:00N 69°39' E 018°60'0 0.0
2017-Jun-17 05:30N 69°39' E 018°60'0 0.0
2017-Jun-17 05:00N 69°39' E 018°60'0 0.0
2017-Jun-17 04:30N 69°39' E 018°60'0 0.0
2017-Jun-17 04:00N 69°39' E 018°60'0 0.0
2017-Jun-17 03:30N 69°39' E 018°60'0 0.0
2017-Jun-17 03:00N 69°39' E 018°60'0 0.0
2017-Jun-17 02:30N 69°39' E 018°60'0 0.0
2017-Jun-17 02:00N 69°39' E 018°60'0 0.0
2017-Jun-17 01:30N 69°39' E 018°60'0 0.0
2017-Jun-17 00:57N 69°39' E 018°60'0 0.0
2017-Jun-17 00:30N 69°39' E 018°60'0 0.0
2017-Jun-17 00:00N 69°39' E 018°60'0 0.0
2017-Jun-16 23:30N 69°39' E 018°60'0 0.0
2017-Jun-16 23:00N 69°39' E 018°60'0 0.0
2017-Jun-16 22:30N 69°39' E 018°60'0 0.0
2017-Jun-16 21:54N 69°39' E 018°60'0 0.0
2017-Jun-16 21:30N 69°39' E 018°60'0 0.0
2017-Jun-16 21:00N 69°39' E 018°60'0 0.0
2017-Jun-16 20:30N 69°39' E 018°60'  
Track history (hours):
 
Tides and Currents Weather Stations Pressure Air Temp Water Temp Dewpoint Dewpoint Depression Visibility Wind Speed Wind Dir Waves Ship Positions

Blue Star

Last reported at 2017-Jun-26 20:58 UTC. Time now 2017-Jun-26 20:58 UTC.
Position N 68°14' E 014°34'.

Length 11 m.

Type: Pleasure craft. MMSI: 258105360.

Date/timePositionNaut miles runAvg speedWind from/ knotsBaromVisibWave heightAir tempDewpointWater temp
2017-Jun-26 20:58N 68°14' E 014°34'0 0.0
2017-Jun-26 20:25N 68°14' E 014°34'0 0.0
2017-Jun-26 19:58N 68°14' E 014°34'0 0.0
2017-Jun-26 19:28N 68°14' E 014°34'0 0.0
2017-Jun-26 18:55N 68°14' E 014°34'0 0.0
2017-Jun-26 18:28N 68°14' E 014°34'0 0.0
2017-Jun-26 17:58N 68°14' E 014°34'0 0.0
2017-Jun-26 17:28N 68°14' E 014°34'0 0.0
2017-Jun-26 17:00N 68°14' E 014°34'0 0.0
2017-Jun-26 16:30N 68°14' E 014°34'0 0.0
2017-Jun-26 16:00N 68°14' E 014°34'0 0.0
2017-Jun-26 15:30N 68°14' E 014°34'0 0.0
2017-Jun-26 15:00N 68°14' E 014°34'0 0.0
2017-Jun-26 14:27N 68°14' E 014°34'0 0.0
2017-Jun-26 13:30N 68°14' E 014°34'0 0.0
2017-Jun-26 12:51N 68°14' E 014°34'0 0.0
2017-Jun-26 12:30N 68°14' E 014°34'0 0.0
2017-Jun-26 08:24N 68°14' E 014°34'0 0.0
2017-Jun-26 08:00N 68°14' E 014°34'0 0.0
2017-Jun-26 07:27N 68°14' E 014°34'0 0.0
2017-Jun-26 07:00N 68°14' E 014°34'0 0.0
2017-Jun-26 06:30N 68°14' E 014°34'0 0.0
2017-Jun-26 05:57N 68°14' E 014°34'0 0.0
2017-Jun-26 05:30N 68°14' E 014°34'0 0.0
2017-Jun-26 05:00N 68°14' E 014°34'0 0.0
2017-Jun-26 04:30N 68°14' E 014°34'0 0.0
2017-Jun-26 04:00N 68°14' E 014°34'0 0.0
2017-Jun-26 03:30N 68°14' E 014°34'0 0.0
2017-Jun-26 03:00N 68°14' E 014°34'0 0.0
2017-Jun-26 02:30N 68°14' E 014°34'0 0.0
2017-Jun-26 02:00N 68°14' E 014°34'0 0.0
2017-Jun-26 01:30N 68°14' E 014°34'0 0.0
2017-Jun-26 01:00N 68°14' E 014°34'0 0.0
2017-Jun-26 00:30N 68°14' E 014°34'0 0.0
2017-Jun-26 00:00N 68°14' E 014°34'0 0.0
2017-Jun-25 23:30N 68°14' E 014°34'0 0.0
2017-Jun-25 23:00N 68°14' E 014°34'0 0.0
2017-Jun-25 22:30N 68°14' E 014°34'0 0.0
2017-Jun-25 22:00N 68°14' E 014°34'0 0.0
2017-Jun-25 21:30N 68°14' E 014°34'0 0.0
2017-Jun-25 21:00N 68°14' E 014°34'0 0.0
2017-Jun-25 20:30N 68°14' E 014°34'0 0.0
2017-Jun-25 20:00N 68°14' E 014°34'0 0.0
2017-Jun-25 19:30N 68°14' E 014°34'0 0.0
2017-Jun-25 19:00N 68°14' E 014°34'0 0.0
2017-Jun-25 18:30N 68°14' E 014°34'0 0.0
2017-Jun-25 18:00N 68°14' E 014°34'0 0.0
2017-Jun-25 17:30N 68°14' E 014°34'0 0.0
2017-Jun-25 17:00N 68°14' E 014°34'0 0.0
2017-Jun-25 16:31N 68°14' E 014°34'0 0.0
2017-Jun-25 16:00N 68°14' E 014°34'0 0.0
2017-Jun-25 15:30N 68°14' E 014°34'0 0.0
2017-Jun-25 15:00N 68°14' E 014°34'0 0.0
2017-Jun-25 14:27N 68°14' E 014°34'0 0.0
2017-Jun-25 13:30N 68°14' E 014°34'3 6.7
2017-Jun-25 13:01N 68°14' E 014°43'4 7.9
2017-Jun-25 12:30N 68°14' E 014°54'4 8.0
2017-Jun-25 12:00N 68°16' E 015°03'4 7.8
2017-Jun-25 11:30N 68°17' E 015°13'4 7.7
2017-Jun-25 11:00N 68°18' E 015°23'4 7.7
2017-Jun-25 10:29N 68°18' E 015°34'4 7.5
2017-Jun-25 10:00N 68°19' E 015°43'4 8.2
2017-Jun-25 09:30N 68°22' E 015°52'4 8.0
2017-Jun-25 09:00N 68°24' E 016°00'0 0.7
2017-Jun-25 08:30N 68°25' E 016°00'0 0.0
2017-Jun-25 07:54N 68°25' E 016°00'0 0.0
2017-Jun-25 07:21N 68°25' E 016°00'0 0.0
2017-Jun-25 06:57N 68°25' E 016°00'0 0.0
2017-Jun-25 06:30N 68°25' E 016°00'0 0.0
2017-Jun-25 05:57N 68°25' E 016°00'0 0.0
2017-Jun-25 05:30N 68°25' E 016°00'0 0.0
2017-Jun-25 04:57N 68°25' E 016°00'0 0.0
2017-Jun-25 04:30N 68°25' E 016°00'0 0.0
2017-Jun-25 04:00N 68°25' E 016°00'0 0.0
2017-Jun-25 03:30N 68°25' E 016°00'0 0.0
2017-Jun-25 02:48N 68°25' E 016°00'0 0.0
2017-Jun-25 02:24N 68°25' E 016°00'0 0.0
2017-Jun-25 01:51N 68°25' E 016°00'0 0.0
2017-Jun-25 01:15N 68°25' E 016°00'0 0.0
2017-Jun-25 00:57N 68°25' E 016°00'0 0.0
2017-Jun-24 23:06N 68°25' E 016°00'0 0.0
2017-Jun-24 22:54N 68°25' E 016°00'0 0.0
2017-Jun-24 22:06N 68°25' E 016°00'0 0.0
2017-Jun-24 22:00N 68°25' E 016°00'0 0.0
2017-Jun-24 21:30N 68°25' E 016°00'0 0.0
2017-Jun-24 21:00N 68°25' E 016°00'0 0.0
2017-Jun-24 20:27N 68°25' E 016°00'0 0.0
2017-Jun-24 19:57N 68°25' E 016°00'0 0.0
2017-Jun-24 19:27N 68°25' E 016°00'0 0.0
2017-Jun-24 19:00N 68°25' E 016°00'0 0.0
2017-Jun-24 18:29N 68°25' E 016°00'0 0.0
2017-Jun-24 17:59N 68°25' E 016°00'0 0.0
2017-Jun-24 17:29N 68°25' E 016°00'0 0.0
2017-Jun-24 16:59N 68°25' E 016°00'2 3.5
2017-Jun-24 16:28N 68°26' E 016°03'4 7.4
2017-Jun-24 15:59N 68°29' E 016°07'4 7.5
2017-Jun-24 15:30N 68°32' E 016°13'4 7.7
2017-Jun-24 15:00N 68°34' E 016°23'6 6.2
2017-Jun-24 14:00N 68°38' E 016°35'4 7.1
2017-Jun-24 13:30N 68°41' E 016°38'4 7.7
2017-Jun-24 13:00N 68°45' E 016°37'3 6.4
2017-Jun-24 12:30N 68°48' E 016°33'0 0.3
2017-Jun-24 12:00N 68°48' E 016°33'0 0.0
2017-Jun-24 11:30N 68°48' E 016°33'0 0.0
2017-Jun-24 11:00N 68°48' E 016°33'0 0.0
2017-Jun-24 10:30N 68°48' E 016°33'0 0.0
2017-Jun-24 10:00N 68°48' E 016°33'0 0.0
2017-Jun-24 09:27N 68°48' E 016°33'0 0.0
2017-Jun-24 08:57N 68°48' E 016°33'0 0.0
2017-Jun-24 08:30N 68°48' E 016°33'0 0.0
2017-Jun-24 08:00N 68°48' E 016°33'0 0.0
2017-Jun-24 07:30N 68°48' E 016°33'0 0.0
2017-Jun-24 07:00N 68°48' E 016°33'0 0.0
2017-Jun-24 06:27N 68°48' E 016°33'0 0.0
2017-Jun-24 06:00N 68°48' E 016°33'0 0.0
2017-Jun-24 05:30N 68°48' E 016°33'0 0.0
2017-Jun-24 05:00N 68°48' E 016°33'0 0.0
2017-Jun-24 04:30N 68°48' E 016°33'0 0.0
2017-Jun-24 03:57N 68°48' E 016°33'0 0.0
2017-Jun-24 03:30N 68°48' E 016°33'0 0.0
2017-Jun-24 03:00N 68°48' E 016°33'0 0.0
2017-Jun-24 02:27N 68°48' E 016°33'0 0.0
2017-Jun-24 01:57N 68°48' E 016°33'0 0.0
2017-Jun-24 01:30N 68°48' E 016°33'0 0.0
2017-Jun-24 01:00N 68°48' E 016°33'0 0.0
2017-Jun-24 00:30N 68°48' E 016°33'0 0.0
2017-Jun-24 00:00N 68°48' E 016°33'0 0.0
2017-Jun-23 23:30N 68°48' E 016°33'0 0.0
2017-Jun-23 23:00N 68°48' E 016°33'0 0.0
2017-Jun-23 22:30N 68°48' E 016°33'0 0.0
2017-Jun-23 22:00N 68°48' E 016°33'0 0.0
2017-Jun-23 21:30N 68°48' E 016°33'0 0.0
2017-Jun-23 21:00N 68°48' E 016°33'0 0.0
2017-Jun-23 20:30N 68°48' E 016°33'0 0.0
2017-Jun-23 20:00N 68°48' E 016°33'0 0.0
2017-Jun-23 19:27N 68°48' E 016°33'0 0.0
2017-Jun-23 19:00N 68°48' E 016°33'0 0.0
2017-Jun-23 18:30N 68°48' E 016°33'0 0.0
2017-Jun-23 18:00N 68°48' E 016°33'0 0.0
2017-Jun-23 17:28N 68°48' E 016°33'0 0.0
2017-Jun-23 16:58N 68°48' E 016°33'0 0.0
2017-Jun-23 16:28N 68°48' E 016°33'0 0.0
2017-Jun-23 15:58N 68°48' E 016°33'0 0.0
2017-Jun-23 15:28N 68°48' E 016°33'0 0.0
2017-Jun-23 14:58N 68°48' E 016°33'0 0.0
2017-Jun-23 13:58N 68°48' E 016°33'0 0.0
2017-Jun-23 13:25N 68°48' E 016°33'0 0.0
2017-Jun-23 12:55N 68°48' E 016°33'0 0.0
2017-Jun-23 12:28N 68°48' E 016°33'0 0.0
2017-Jun-23 11:58N 68°48' E 016°33'0 0.0
2017-Jun-23 11:28N 68°48' E 016°33'0 0.0
2017-Jun-23 10:58N 68°48' E 016°33'0 0.0
2017-Jun-23 10:28N 68°48' E 016°33'0 0.0
2017-Jun-23 09:58N 68°48' E 016°33'0 0.0
2017-Jun-23 09:28N 68°48' E 016°33'0 0.0
2017-Jun-23 08:58N 68°48' E 016°33'0 0.0
2017-Jun-23 08:28N 68°48' E 016°33'0 0.0
2017-Jun-23 07:58N 68°48' E 016°33'0 0.0
2017-Jun-23 07:28N 68°48' E 016°33'0 0.0
2017-Jun-23 07:00N 68°48' E 016°33'0 0.0
2017-Jun-23 06:30N 68°48' E 016°33'0 0.0
2017-Jun-23 06:00N 68°48' E 016°33'0 0.0
2017-Jun-23 05:30N 68°48' E 016°33'0 0.0
2017-Jun-23 05:00N 68°48' E 016°33'0 0.0
2017-Jun-23 04:30N 68°48' E 016°33'0 0.0
2017-Jun-23 04:00N 68°48' E 016°33'0 0.0
2017-Jun-23 03:30N 68°48' E 016°33'0 0.0
2017-Jun-23 03:00N 68°48' E 016°33'0 0.0
2017-Jun-23 02:30N 68°48' E 016°33'0 0.0
2017-Jun-23 02:00N 68°48' E 016°33'0 0.0
2017-Jun-23 01:30N 68°48' E 016°33'0 0.0
2017-Jun-23 01:00N 68°48' E 016°33'0 0.0
2017-Jun-23 00:30N 68°48' E 016°33'0 0.0
2017-Jun-23 00:00N 68°48' E 016°33'0 0.0
2017-Jun-22 23:30N 68°48' E 016°33'0 0.0
2017-Jun-22 23:00N 68°48' E 016°33'0 0.0
2017-Jun-22 22:30N 68°48' E 016°33'0 0.0
2017-Jun-22 21:59N 68°48' E 016°33'0 0.0
2017-Jun-22 21:29N 68°48' E 016°33'2 3.1
2017-Jun-22 21:00N 68°49' E 016°36'4 8.1
2017-Jun-22 20:30N 68°51' E 016°46'4 8.4
2017-Jun-22 20:00N 68°54' E 016°55'4 8.0
2017-Jun-22 19:29N 68°56' E 017°05'4 8.3
2017-Jun-22 18:59N 68°58' E 017°16'4 8.3
2017-Jun-22 18:30N 68°60' E 017°25'4 8.5
2017-Jun-22 18:00N 69°03' E 017°32'4 8.2
2017-Jun-22 17:30N 69°07' E 017°38'4 8.6
2017-Jun-22 17:00N 69°09' E 017°48'4 8.4
2017-Jun-22 16:30N 69°11' E 017°59'4 7.3
2017-Jun-22 16:00N 69°14' E 017°58'0 0.6
2017-Jun-22 15:30N 69°14' E 017°59'0 0.0
2017-Jun-22 15:00N 69°14' E 017°59'0 0.0
2017-Jun-22 14:00N 69°14' E 017°59'0 0.0
2017-Jun-22 13:30N 69°14' E 017°59'0 0.0
2017-Jun-22 13:00N 69°14' E 017°59'0 0.0
2017-Jun-22 12:30N 69°14' E 017°59'0 0.0
2017-Jun-22 12:00N 69°14' E 017°59'0 0.0
2017-Jun-22 11:30N 69°14' E 017°59'0 0.0
2017-Jun-22 11:00N 69°14' E 017°59'0 0.0
2017-Jun-22 10:30N 69°14' E 017°59'0 0.0
2017-Jun-22 10:00N 69°14' E 017°59'0 0.0
2017-Jun-22 09:30N 69°14' E 017°59'0 0.0
2017-Jun-22 09:00N 69°14' E 017°59'0 0.0
2017-Jun-22 08:30N 69°14' E 017°59'0 0.0
2017-Jun-22 08:00N 69°14' E 017°59'0 0.0
2017-Jun-22 07:30N 69°14' E 017°59'0 0.0
2017-Jun-22 07:00N 69°14' E 017°59'0 0.0
2017-Jun-22 06:30N 69°14' E 017°59'0 0.0
2017-Jun-22 06:00N 69°14' E 017°59'0 0.0
2017-Jun-22 05:30N 69°14' E 017°59'0 0.0
2017-Jun-22 05:00N 69°14' E 017°59'0 0.0
2017-Jun-22 04:30N 69°14' E 017°59'0 0.0
2017-Jun-22 04:00N 69°14' E 017°59'0 0.0
2017-Jun-22 03:30N 69°14' E 017°59'0 0.0
2017-Jun-22 03:00N 69°14' E 017°59'0 0.0
2017-Jun-22 02:30N 69°14' E 017°59'0 0.0
2017-Jun-22 01:57N 69°14' E 017°59'0 0.0
2017-Jun-22 01:30N 69°14' E 017°59'0 0.0
2017-Jun-22 01:00N 69°14' E 017°59'0 0.0
2017-Jun-22 00:30N 69°14' E 017°59'0 0.0
2017-Jun-22 00:00N 69°14' E 017°59'0 0.0
2017-Jun-21 23:30N 69°14' E 017°59'0 0.0
2017-Jun-21 23:00N 69°14' E 017°59'0 0.0
2017-Jun-21 22:30N 69°14' E 017°59'0 0.0
2017-Jun-21 22:00N 69°14' E 017°59'0 0.0
2017-Jun-21 21:30N 69°14' E 017°59'0 0.0
2017-Jun-21 21:00N 69°14' E 017°59'3 5.4
2017-Jun-21 20:30N 69°17' E 017°58'4 8.2
2017-Jun-21 19:59N 69°21' E 018°04'4 8.5
2017-Jun-21 19:30N 69°25' E 018°06'4 8.1
2017-Jun-21 19:00N 69°29' E 018°10'4 7.9
2017-Jun-21 18:29N 69°30' E 018°20'4 7.9
2017-Jun-21 18:00N 69°32' E 018°31'4 8.1
2017-Jun-21 17:30N 69°33' E 018°41'3 6.4
2017-Jun-21 16:59N 69°35' E 018°49'4 8.3
2017-Jun-21 16:29N 69°38' E 018°57'1 2.9
2017-Jun-21 15:59N 69°39' E 018°60'0 0.0
2017-Jun-21 15:29N 69°39' E 018°60'0 0.0
2017-Jun-21 14:57N 69°39' E 018°60'0 0.0
2017-Jun-21 14:30N 69°39' E 018°60'0 0.0
2017-Jun-21 11:39N 69°39' E 018°60'0 0.0
2017-Jun-21 10:59N 69°39' E 018°60'0 0.0
2017-Jun-20 20:44N 69°39' E 018°60'0 0.0
2017-Jun-20 08:44N 69°39' E 018°60'0 0.0
2017-Jun-19 12:51N 69°39' E 018°60'0 0.0
2017-Jun-19 12:30N 69°39' E 018°60'0 0.0
2017-Jun-19 12:00N 69°39' E 018°60'0 0.0
2017-Jun-19 11:30N 69°39' E 018°60'0 0.0
2017-Jun-19 11:00N 69°39' E 018°60'0 0.0
2017-Jun-19 10:30N 69°39' E 018°60'0 0.0
2017-Jun-19 10:00N 69°39' E 018°60'0 0.0
2017-Jun-19 09:30N 69°39' E 018°60'0 0.0
2017-Jun-19 09:00N 69°39' E 018°60'0 0.0
2017-Jun-19 08:30N 69°39' E 018°60'0 0.0
2017-Jun-19 08:00N 69°39' E 018°60'0 0.0
2017-Jun-19 07:30N 69°39' E 018°60'0 0.0
2017-Jun-19 07:00N 69°39' E 018°60'0 0.0
2017-Jun-19 06:30N 69°39' E 018°60'0 0.0
2017-Jun-19 06:00N 69°39' E 018°60'0 0.0
2017-Jun-19 05:30N 69°39' E 018°60'0 0.0
2017-Jun-19 05:00N 69°39' E 018°60'0 0.0
2017-Jun-19 04:30N 69°39' E 018°60'0 0.0
2017-Jun-19 04:00N 69°39' E 018°60'0 0.0
2017-Jun-19 03:30N 69°39' E 018°60'0 0.0
2017-Jun-19 03:00N 69°39' E 018°60'0 0.0
2017-Jun-19 02:30N 69°39' E 018°60'0 0.0
2017-Jun-19 02:00N 69°39' E 018°60'0 0.0
2017-Jun-19 01:30N 69°39' E 018°60'0 0.0
2017-Jun-19 01:00N 69°39' E 018°60'0 0.0
2017-Jun-19 00:30N 69°39' E 018°60'0 0.0
2017-Jun-19 00:00N 69°39' E 018°60'0 0.0
2017-Jun-18 23:30N 69°39' E 018°60'0 0.0
2017-Jun-18 23:00N 69°39' E 018°60'0 0.0
2017-Jun-18 22:30N 69°39' E 018°60'0 0.0
2017-Jun-18 22:00N 69°39' E 018°60'0 0.0
2017-Jun-18 21:30N 69°39' E 018°60'0 0.0
2017-Jun-18 21:00N 69°39' E 018°60'0 0.0
2017-Jun-18 20:30N 69°39' E 018°60'0 0.0
2017-Jun-18 20:00N 69°39' E 018°60'0 0.0
2017-Jun-18 19:30N 69°39' E 018°60'0 0.0
2017-Jun-18 19:00N 69°39' E 018°60'0 0.0
2017-Jun-18 18:30N 69°39' E 018°60'0 0.0
2017-Jun-18 18:00N 69°39' E 018°60'0 0.0
2017-Jun-18 17:30N 69°39' E 018°60'0 0.0
2017-Jun-18 17:00N 69°39' E 018°60'0 0.0
2017-Jun-18 16:30N 69°39' E 018°60'0 0.0
2017-Jun-18 16:00N 69°39' E 018°60'0 0.0
2017-Jun-18 15:30N 69°39' E 018°60'0 0.0
2017-Jun-18 15:00N 69°39' E 018°60'0 0.0
2017-Jun-18 14:00N 69°39' E 018°60'0 0.0
2017-Jun-18 13:30N 69°39' E 018°60'0 0.0
2017-Jun-18 13:00N 69°39' E 018°60'0 0.0
2017-Jun-18 12:30N 69°39' E 018°60'0 0.0
2017-Jun-18 12:00N 69°39' E 018°60'0 0.0
2017-Jun-18 11:30N 69°39' E 018°60'0 0.0
2017-Jun-18 11:00N 69°39' E 018°60'0 0.0
2017-Jun-18 10:30N 69°39' E 018°60'0 0.0
2017-Jun-18 10:00N 69°39' E 018°60'0 0.0
2017-Jun-18 09:30N 69°39' E 018°60'0 0.0
2017-Jun-18 09:00N 69°39' E 018°60'0 0.0
2017-Jun-18 08:30N 69°39' E 018°60'0 0.0
2017-Jun-18 08:00N 69°39' E 018°60'0 0.0
2017-Jun-18 07:30N 69°39' E 018°60'0 0.0
2017-Jun-18 07:00N 69°39' E 018°60'0 0.0
2017-Jun-18 06:30N 69°39' E 018°60'0 0.0
2017-Jun-18 06:00N 69°39' E 018°60'0 0.0
2017-Jun-18 05:30N 69°39' E 018°60'0 0.0
2017-Jun-18 05:00N 69°39' E 018°60'0 0.0
2017-Jun-18 04:30N 69°39' E 018°60'0 0.0
2017-Jun-18 04:00N 69°39' E 018°60'0 0.0
2017-Jun-18 03:30N 69°39' E 018°60'0 0.0
2017-Jun-18 03:00N 69°39' E 018°60'0 0.0
2017-Jun-18 02:30N 69°39' E 018°60'0 0.0
2017-Jun-18 02:00N 69°39' E 018°60'0 0.0
2017-Jun-18 01:30N 69°39' E 018°60'0 0.0
2017-Jun-18 01:00N 69°39' E 018°60'0 0.0
2017-Jun-18 00:30N 69°39' E 018°60'0 0.0
2017-Jun-18 00:00N 69°39' E 018°60'0 0.0
2017-Jun-17 23:30N 69°39' E 018°60'0 0.0
2017-Jun-17 23:00N 69°39' E 018°60'0 0.0
2017-Jun-17 22:30N 69°39' E 018°60'0 0.0
2017-Jun-17 22:00N 69°39' E 018°60'0 0.0
2017-Jun-17 21:27N 69°39' E 018°60'0 0.0
2017-Jun-17 21:00N 69°39' E 018°60'0 0.0
2017-Jun-17 20:30N 69°39' E 018°60'0 0.0
2017-Jun-17 20:00N 69°39' E 018°60'0 0.0
2017-Jun-17 19:30N 69°39' E 018°60'0 0.0
2017-Jun-17 19:00N 69°39' E 018°60'0 0.0
2017-Jun-17 18:30N 69°39' E 018°60'0 0.0
2017-Jun-17 18:00N 69°39' E 018°60'0 0.0
2017-Jun-17 17:30N 69°39' E 018°60'0 0.0
2017-Jun-17 17:00N 69°39' E 018°60'0 0.0
2017-Jun-17 16:30N 69°39' E 018°60'0 0.0
2017-Jun-17 16:00N 69°39' E 018°60'0 0.0
2017-Jun-17 15:30N 69°39' E 018°60'0 0.0
2017-Jun-17 15:00N 69°39' E 018°60'0 0.0
2017-Jun-17 14:30N 69°39' E 018°60'0 0.0
2017-Jun-17 13:30N 69°39' E 018°60'0 0.0
2017-Jun-17 13:00N 69°39' E 018°60'0 0.0
2017-Jun-17 12:30N 69°39' E 018°60'0 0.0
2017-Jun-17 12:00N 69°39' E 018°60'0 0.0
2017-Jun-17 11:30N 69°39' E 018°60'0 0.0
2017-Jun-17 11:00N 69°39' E 018°60'0 0.0
2017-Jun-17 10:30N 69°39' E 018°60'0 0.0
2017-Jun-17 10:00N 69°39' E 018°60'0 0.0
2017-Jun-17 09:30N 69°39' E 018°60'0 0.0
2017-Jun-17 09:00N 69°39' E 018°60'0 0.0
2017-Jun-17 08:30N 69°39' E 018°60'0 0.0
2017-Jun-17 08:00N 69°39' E 018°60'0 0.0
2017-Jun-17 07:30N 69°39' E 018°60'0 0.0
2017-Jun-17 07:00N 69°39' E 018°60'0 0.0
2017-Jun-17 06:30N 69°39' E 018°60'0 0.0
2017-Jun-17 06:00N 69°39' E 018°60'0 0.0
2017-Jun-17 05:30N 69°39' E 018°60'0 0.0
2017-Jun-17 05:00N 69°39' E 018°60'0 0.0
2017-Jun-17 04:30N 69°39' E 018°60'0 0.0
2017-Jun-17 04:00N 69°39' E 018°60'0 0.0
2017-Jun-17 03:30N 69°39' E 018°60'0 0.0
2017-Jun-17 03:00N 69°39' E 018°60'0 0.0
2017-Jun-17 02:30N 69°39' E 018°60'0 0.0
2017-Jun-17 02:00N 69°39' E 018°60'0 0.0
2017-Jun-17 01:30N 69°39' E 018°60'0 0.0
2017-Jun-17 00:57N 69°39' E 018°60'0 0.0
2017-Jun-17 00:30N 69°39' E 018°60'0 0.0
2017-Jun-17 00:00N 69°39' E 018°60'0 0.0
2017-Jun-16 23:30N 69°39' E 018°60'0 0.0
2017-Jun-16 23:00N 69°39' E 018°60'0 0.0
2017-Jun-16 22:30N 69°39' E 018°60'0 0.0
2017-Jun-16 21:54N 69°39' E 018°60'0 0.0
2017-Jun-16 21:30N 69°39' E 018°60'0 0.0
2017-Jun-16 21:00N 69°39' E 018°60'0 0.0
2017-Jun-16 20:30N 69°39' E 018°60'  

Dump ship's entire track history